Latest Coastal Weather Observations for Lihou Reef Lighthouse

IDQ60701

Issued at 1:42 pm EST Friday 27 March 2015 (issued every 10 minutes, with the page automatically refreshed every 10 minutes)

About coastal observations | Map of coastal stations | Coastal observations for QLD | Marine services | Other Formats
Station Details ID: 200880 Name: LIHOU REEF LIGHTHOUSE Lat: -17.13 Lon: 152.15 Height: 0.0 m
Data from the previous 72 hours. | See also: Recent months for locations in Queensland
Date/Time
EST
Temp

°C
Wind Pressure Rain
since 9am
mm
Weather Cloud Vis
km
Sea
Height
m
Swell
Dir
 
Speed
knots
Gust
knots
hPa Trend Height
m
Period
s
Dir
27/01:30pm 27.8 ESE 13 15 1012.6 - - - - - - - - -
27/01:00pm 27.7 SE 13 15 1013.0 - - - - - - - - -
27/12:30pm 27.8 ESE 13 15 1013.5 - - - - - - - - -
27/12:00pm 27.8 ESE 13 16 1014.0 - - - - - - - - -
27/11:30am 27.9 ESE 14 17 1014.4 - - - - - - - - -
27/11:00am 27.9 ESE 14 16 1014.9 - - - - - - - - -
27/10:30am 27.7 ESE 16 18 1015.2 - - - - - - - - -
27/10:00am 27.7 ESE 16 18 1015.6 - - - - - - - - -
27/09:30am 27.8 ESE 17 19 1015.7 - - - - - - - - -
27/09:00am 27.8 SE 17 19 1015.8 - - - - - - - - -
27/08:30am 27.7 SE 17 20 1015.6 - - - - - - - - -
27/08:00am 27.7 ESE 17 20 1015.5 - - - - - - - - -
27/07:30am 27.6 ESE 18 21 1015.3 - - - - - - - - -
27/07:00am 27.6 ESE 18 22 1014.9 - - - - - - - - -
27/06:30am 26.8 SE 16 20 1014.9 - - - - - - - - -
27/06:00am 26.1 ESE 16 21 1014.7 - - - - - - - - -
27/05:30am 27.4 ESE 15 17 1014.3 - - - - - - - - -
27/05:00am 27.3 ESE 13 16 1014.1 - - - - - - - - -
27/04:30am 27.4 ESE 15 17 1014.1 - - - - - - - - -
27/04:00am 27.3 ESE 15 18 1013.9 - - - - - - - - -
27/03:30am 27.5 ESE 16 18 1013.7 - - - - - - - - -
27/03:00am 27.3 ESE 15 18 1013.6 - - - - - - - - -
27/02:30am 27.5 ESE 15 18 1013.8 - - - - - - - - -
27/02:00am 27.4 ESE 15 17 1013.8 - - - - - - - - -
27/01:30am 27.5 ESE 16 19 1014.0 - - - - - - - - -
27/01:00am 27.6 ESE 18 20 1014.1 - - - - - - - - -
27/12:30am 27.7 ESE 17 20 1014.3 - - - - - - - - -
27/12:00am 27.3 ESE 18 21 1014.5 - - - - - - - - -
 
Date/Time
EST
Temp

°C
Wind Pressure Rain
since 9am
mm
Weather Cloud Vis
km
Sea
Height
m
Swell
Dir
 
Speed
knots
Gust
knots
hPa Trend Height
m
Period
s
Dir
26/11:30pm 26.0 ESE 17 24 1015.0 - - - - - - - - -
26/11:16pm 26.3 E 15 26 1014.6 - - - - - - - - -
26/11:00pm 27.1 E 14 17 1014.9 - - - - - - - - -
26/10:30pm 27.2 E 13 16 1015.0 - - - - - - - - -
26/10:00pm 26.8 ESE 18 23 1014.9 - - - - - - - - -
26/09:30pm 27.6 ESE 14 16 1015.1 - - - - - - - - -
26/09:00pm 27.6 ESE 15 18 1015.1 - - - - - - - - -
26/08:30pm 27.7 ESE 14 16 1014.9 - - - - - - - - -
26/08:00pm 27.6 ESE 14 18 1014.7 - - - - - - - - -
26/07:30pm 27.5 ESE 13 15 1014.5 - - - - - - - - -
26/07:00pm 26.8 ESE 13 21 1014.3 - - - - - - - - -
26/06:30pm 27.9 ESE 11 12 1013.9 - - - - - - - - -
26/06:00pm 27.9 ESE 11 13 1013.5 - - - - - - - - -
26/05:30pm 28.1 ESE 12 14 1013.1 - - - - - - - - -
26/05:00pm 28.0 ESE 12 14 1012.6 - - - - - - - - -
26/04:30pm 27.9 ESE 12 14 1012.4 - - - - - - - - -
26/04:00pm 27.9 ESE 12 14 1012.4 - - - - - - - - -
26/03:30pm 27.5 ESE 14 16 1012.2 - - - - - - - - -
26/03:00pm 27.8 ESE 11 13 1012.4 - - - - - - - - -
26/02:30pm 27.9 SE 13 16 1012.4 - - - - - - - - -
26/02:00pm 28.0 ESE 12 14 1012.6 - - - - - - - - -
26/01:30pm 27.9 ESE 13 15 1012.9 - - - - - - - - -
26/01:00pm 27.9 ESE 14 16 1013.3 - - - - - - - - -
26/12:30pm 27.8 SE 13 16 1013.8 - - - - - - - - -
26/12:00pm 27.7 SE 12 14 1014.2 - - - - - - - - -
26/11:30am 27.7 SE 13 15 1014.6 - - - - - - - - -
26/11:00am 27.9 ESE 13 15 1014.8 - - - - - - - - -
26/10:30am 27.8 ESE 13 15 1015.0 - - - - - - - - -
26/10:00am 27.8 ESE 13 15 1015.1 - - - - - - - - -
26/09:30am 27.8 ESE 13 15 1015.2 - - - - - - - - -
26/09:00am 27.8 ESE 12 15 1015.2 - - - - - - - - -
26/08:30am 27.8 ESE 12 14 1015.2 - - - - - - - - -
26/08:00am 27.7 ESE 11 13 1015.1 - - - - - - - - -
26/07:30am 27.6 ESE 11 13 1014.9 - - - - - - - - -
26/07:00am 27.6 ESE 11 13 1014.8 - - - - - - - - -
26/06:30am 27.4 ESE 11 13 1014.5 - - - - - - - - -
26/06:00am 27.0 ESE 12 13 1014.0 - - - - - - - - -
26/05:30am 27.0 ESE 12 14 1013.8 - - - - - - - - -
26/05:00am 27.0 ESE 12 14 1013.7 - - - - - - - - -
26/04:30am 27.0 ESE 12 15 1013.3 - - - - - - - - -
26/04:00am 27.1 ESE 12 15 1013.2 - - - - - - - - -
26/03:30am 27.1 ESE 13 14 1013.2 - - - - - - - - -
26/03:00am 27.1 ESE 13 15 1013.2 - - - - - - - - -
26/02:30am 27.1 SE 13 16 1013.3 - - - - - - - - -
26/02:00am 27.1 SE 14 15 1013.5 - - - - - - - - -
26/01:30am 27.1 SE 13 15 1013.8 - - - - - - - - -
26/01:00am 27.2 SE 13 15 1014.0 - - - - - - - - -
26/12:30am 27.2 SE 13 15 1014.3 - - - - - - - - -
26/12:00am 27.3 SE 13 16 1014.6 - - - - - - - - -
 
Date/Time
EST
Temp

°C
Wind Pressure Rain
since 9am
mm
Weather Cloud Vis
km
Sea
Height
m
Swell
Dir
 
Speed
knots
Gust
knots
hPa Trend Height
m
Period
s
Dir
25/11:30pm 27.2 SE 13 16 1014.8 - - - - - - - - -
25/11:00pm 27.3 SE 13 16 1015.0 - - - - - - - - -
25/10:30pm 27.3 SE 15 17 1014.8 - - - - - - - - -
25/10:00pm 27.3 SE 14 16 1015.0 - - - - - - - - -
25/09:30pm 27.4 SE 15 18 1014.9 - - - - - - - - -
25/09:00pm 27.5 SE 16 18 1014.8 - - - - - - - - -
25/08:30pm 27.5 SE 16 17 1014.6 - - - - - - - - -
25/08:00pm 27.4 SE 15 17 1014.3 - - - - - - - - -
25/07:30pm 27.4 SE 14 16 1014.2 - - - - - - - - -
25/07:00pm 27.6 SE 15 16 1013.7 - - - - - - - - -
25/06:30pm 27.5 SE 12 15 1013.6 - - - - - - - - -
25/06:00pm 27.6 SE 13 15 1013.4 - - - - - - - - -
25/05:30pm 27.6 SE 11 13 1012.9 - - - - - - - - -
25/05:00pm 27.8 SE 10 11 1012.5 - - - - - - - - -
25/04:30pm 27.6 SE 10 12 1012.4 - - - - - - - - -
25/04:00pm 27.7 SE 10 12 1012.4 - - - - - - - - -
25/03:30pm 27.7 SE 10 12 1012.2 - - - - - - - - -
25/03:00pm 27.8 SE 9 10 1012.3 - - - - - - - - -
25/02:30pm 27.9 SE 9 10 1012.5 - - - - - - - - -
25/02:00pm 28.1 ESE 9 11 1012.6 - - - - - - - - -
25/01:30pm 28.0 ESE 9 10 1012.8 - - - - - - - - -
25/01:00pm 28.1 ESE 9 10 1012.9 - - - - - - - - -
25/12:30pm 28.1 ESE 9 12 1013.2 - - - - - - - - -
25/12:00pm 28.0 ESE 11 14 1013.5 - - - - - - - - -
25/11:30am 28.1 E 9 12 1014.0 - - - - - - - - -
25/11:00am 28.1 ESE 11 13 1014.4 - - - - - - - - -
25/10:30am 28.0 ESE 11 13 1014.6 - - - - - - - - -
25/10:00am 28.1 ESE 11 13 1014.8 - - - - - - - - -
25/09:30am 27.9 ESE 12 14 1015.0 - - - - - - - - -
25/09:00am 27.7 ESE 12 14 1015.1 - - - - - - - - -
25/08:30am 28.1 ESE 13 15 1014.9 - - - - - - - - -
25/08:00am 27.6 ESE 13 15 1014.8 - - - - - - - - -
25/07:30am 27.1 ESE 12 14 1014.4 - - - - - - - - -
25/07:00am 26.8 ESE 11 13 1014.3 - - - - - - - - -
25/06:30am 26.5 ESE 15 18 1014.0 - - - - - - - - -
25/06:00am 25.6 SE 18 21 1013.7 - - - - - - - - -
25/05:30am 26.6 ESE 13 15 1013.5 - - - - - - - - -
25/05:00am 26.0 ESE 14 16 1013.3 - - - - - - - - -
25/04:30am 26.3 ESE 15 18 1013.2 - - - - - - - - -
25/04:00am 26.8 ESE 12 14 1012.9 - - - - - - - - -
25/03:30am 26.6 SE 11 14 1012.7 - - - - - - - - -
25/03:00am 26.0 SE 15 18 1012.5 - - - - - - - - -
25/02:30am 27.1 ESE 10 12 1012.6 - - - - - - - - -
25/02:00am 27.1 ESE 10 11 1012.8 - - - - - - - - -
25/01:30am 27.0 ESE 11 13 1013.1 - - - - - - - - -
25/01:00am 26.7 ESE 9 11 1013.2 - - - - - - - - -
25/12:30am 26.2 ESE 11 15 1013.5 - - - - - - - - -
25/12:00am 26.6 SSE 12 14 1013.6 - - - - - - - - -
 
Date/Time
EST
Temp

°C
Wind Pressure Rain
since 9am
mm
Weather Cloud Vis
km
Sea
Height
m
Swell
Dir
 
Speed
knots
Gust
knots
hPa Trend Height
m
Period
s
Dir
24/11:30pm 26.9 SE 9 11 1013.9 - - - - - - - - -
24/11:00pm 26.8 SE 12 13 1014.1 - - - - - - - - -
24/10:30pm 27.3 SE 11 13 1014.1 - - - - - - - - -
24/10:00pm 27.4 SE 9 11 1014.2 - - - - - - - - -
24/09:30pm 27.5 SE 10 12 1014.3 - - - - - - - - -
24/09:00pm 27.6 SE 11 13 1014.1 - - - - - - - - -
24/08:30pm 27.6 SE 10 12 1013.8 - - - - - - - - -
24/08:00pm 27.6 SE 11 13 1013.4 - - - - - - - - -
24/07:30pm 27.7 SE 11 12 1013.2 - - - - - - - - -
24/07:00pm 27.6 SE 10 12 1013.0 - - - - - - - - -
24/06:30pm 27.6 SE 10 11 1012.8 - - - - - - - - -
24/06:00pm 27.6 SE 9 11 1012.5 - - - - - - - - -
24/05:30pm 27.7 SE 10 12 1012.3 - - - - - - - - -
24/05:00pm 27.7 SSE 10 12 1012.0 - - - - - - - - -
24/04:30pm 27.8 SE 9 11 1011.7 - - - - - - - - -
24/04:00pm 27.9 SE 9 11 1011.6 - - - - - - - - -
24/03:30pm 27.8 SE 9 11 1011.5 - - - - - - - - -
24/03:00pm 27.7 SE 9 12 1011.5 - - - - - - - - -
24/02:30pm 27.6 SE 9 11 1011.5 - - - - - - - - -
24/02:00pm 27.9 SE 8 10 1011.9 - - - - - - - - -

Other Formats:

Comma delimited format used in spreadsheet applications
http://www.bom.gov.au/fwo/IDQ60701/IDQ60701.94293.axf

JavaScript Object Notation format (JSON) in row-major order
http://www.bom.gov.au/fwo/IDQ60701/IDQ60701.94293.json